横田飛行場の過去48時間の天気

横田飛行場 (Yokota)

現在時刻: 1/24 09:51 JST (1/24 00:51 UTC) 以下の時間は現地時間です。

過去48時間のMETAR気象情報
時間 風向 風速(m/s) 視程 気温(℃) 湿度(%) 気圧(hPa) 天気現象
24 09:26 静穏 0 10km以上 10 82 1024.8
24 09:11 静穏 0 10km以上 9 87 1024.5
24 08:56 西 2 10km以上 8.7 88 1024.5
24 07:56 静穏 0 10km以上 7.5 96 1024.2
24 06:56 静穏 0 10km以上 6.6 94 1023.2
24 06:41 静穏 0 10km以上 7 93 1023.2
24 05:56 西 2 10km以上 7.3 90 1022.8
24 05:11 静穏 0 10km以上 7 93 1022.2
24 04:56 静穏 0 10km以上 6.8 94 1021.8
24 04:26 西北西 2 10km以上 6 100 1022.2
24 03:56 静穏 0 10km以上 5.6 97 1021.8
24 02:56 静穏 0 10km以上 4.9 98 1021.9
24 02:26 静穏 0 10km以上 5 93 1021.5
24 01:56 静穏 0 10km以上 4 95 1021.5
24 00:56 西北西 3 10km以上 6.4 89 1021.1
24 00:41 西 3 10km以上 6 93 1020.9
23 23:56 西 3 10km以上 6 89 1020.9
23 22:56 静穏 0 10km以上 5.8 89 1020.9
23 21:56 西 2 10km以上 6.3 87 1020.5
23 20:56 西北西 2 10km以上 6.9 85 1020.9
23 19:56 静穏 0 10km以上 6.8 78 1020.5
23 18:56 3 10km以上 6.8 76 1020.2
23 17:56 北北東 3 10km以上 7.3 79 1020.2
23 16:56 北北東 3 10km以上 7.5 78 1019.9
23 15:56 北東 3 10km以上 7.3 84 1019.9
23 14:56 北北東 2 10km以上 7.2 83 1020.3
23 14:04 北東 3 10km以上 8 71 1020.2 弱い雨
23 13:57 北東 2 10km以上 8 76 1020.2
23 13:16 静穏 0 10km以上 7 81 1020.9 弱い雨
23 12:56 静穏 0 10km以上 7.1 78 1021.2
23 12:26 静穏 0 10km以上 6 81 1021.9
23 11:56 静穏 0 10km以上 6 82 1022.6
23 11:23 静穏 0 10km以上 6 81 1023.3
23 11:13 静穏 0 10km以上 6 81 1024.1 弱い雨
23 10:56 静穏 0 10km以上 5.2 85 1024.3 弱い雨
23 09:56 静穏 0 10km以上 5 87 1026.4 弱い雨
23 08:56 静穏 0 10km以上 4.8 87 1026.4 弱い雨
23 08:20 北東 2 10km以上 4 93 1025.1 弱い霧雨
23 07:56 静穏 0 10km以上 4 89 1026.1 弱い雨
23 06:56 静穏 0 10km以上 3.4 84 1026.1
23 05:56 静穏 0 10km以上 2.7 87 1025.4
23 04:56 静穏 0 10km以上 2.1 87 1025.5
23 03:56 静穏 0 10km以上 2.1 89 1025.8
23 02:56 北北西 2 10km以上 1.9 85 1025.8
23 01:56 静穏 0 10km以上 2 84 1026.4
23 00:56 西南西 2 10km以上 4.1 77 1026.1
22 23:56 西北西 2 10km以上 4 76 1027.5
22 22:56 静穏 0 10km以上 4.3 74 1027
22 21:56 西 2 10km以上 4.1 74 1026
22 20:56 西 3 10km以上 4.3 71 1028.2
22 19:56 西 2 10km以上 4.8 60 1028.5
22 18:56 静穏 0 10km以上 4.6 59 1028.5
22 17:56 静穏 0 10km以上 4.5 60 1028.2
22 16:56 2 10km以上 4.5 57 1028.6
22 16:26 北東 2 10km以上 6 52 1028.7
22 15:56 東北東 2 10km以上 6.5 50 1028.6
22 14:56 東北東 3 10km以上 6.4 51 1028.6
22 13:56 2 10km以上 6.3 49 1028.9
22 13:26 東北東 2 10km以上 6 49 1029.6
22 12:56 北北東 2 10km以上 4.8 48 1030
22 11:56 北東 3 10km以上 4 50 1030.9
22 10:56 北北東 3 10km以上 3 56 1032
22 09:56 3 10km以上 3 65 1032
RJTY 240026Z AUTO 00000KT 10SM OVC014 10/07 A3024 RMK AO2 SLP248 FZRANO $
RJTY 240011Z AUTO 00000KT 10SM OVC015 09/07 A3023 RMK AO2 CIG 014 RWY18 SLP245 FZRANO $
RJTY 232356Z AUTO 26003KT 10SM BKN014 OVC022 09/07 A3023 RMK AO2 SLP245 70006 T00870068 10087 20050 52017 FZRANO $
RJTY 232256Z AUTO 00000KT 10SM OVC014 08/07 A3022 RMK AO2 CIG 012 RWY18 SLP242 T00750069 FZRANO $
RJTY 232156Z AUTO 00000KT 10SM BKN014 OVC021 07/06 A3019 RMK AO2 SLP232 T00660057 FZRANO $
RJTY 232141Z AUTO 00000KT 10SM BKN015 OVC021 07/06 A3019 RMK AO2 CIG 014 RWY18 SLP232 FZRANO $
RJTY 232056Z AUTO 26004KT 10SM OVC021 07/06 A3018 RMK AO2 OVC V BKN CIG 019 RWY18 SLP228 T00730058 53012 FZRANO $
RJTY 232011Z AUTO 00000KT 10SM BKN023 OVC038 07/06 A3016 RMK AO2 CIG 023V040 SLP222 FZRANO $
RJTY 231956Z AUTO 00000KT 10SM FEW023 OVC040 07/06 A3015 RMK AO2 SLP218 T00680059 FZRANO $
RJTY 231926Z AUTO 29003KT 10SM SCT021 OVC043 06/06 A3016 RMK AO2 SLP222 FZRANO $
RJTY 231856Z AUTO 00000KT 10SM BKN021 OVC043 06/05 A3015 RMK AO2 CIG 018 RWY18 SLP218 T00560052 FZRANO $
RJTY 231756Z AUTO 00000KT 10SM BKN018 OVC045 05/05 A3015 RMK AO2 CIG 018V045 BKN V SCT SLP219 T00490046 10069 20027 52007 FZRANO $
RJTY 231726Z AUTO 00000KT 10SM SCT018 05/04 A3014 RMK AO2 SLP215 FZRANO $
RJTY 231656Z AUTO 00000KT 10SM OVC019 04/03 A3014 RMK AO2 CIG 017 RWY18 SLP215 T00400033 FZRANO $
RJTY 231556Z AUTO 29006KT 10SM OVC018 06/05 A3013 RMK AO2 OVC V BKN CIG 017 RWY18 SLP211 T00640047 FZRANO $
RJTY 231541Z AUTO 28005KT 10SM BKN018 OVC210 06/05 A3012 RMK AO2 CIG 018V210 BKN V SCT SLP209 FZRANO $
RJTY 231456Z AUTO 28006KT 10SM FEW200 06/04 A3012 RMK AO2 SLP209 T00600043 400780013 53003 FZRANO $
RJTY 231356Z AUTO 00000KT 10SM FEW150 SCT180 06/04 A3012 RMK AO2 SLP209 T00580041 FZRANO $
RJTY 231256Z AUTO 27003KT 10SM FEW130 SCT160 06/04 A3011 RMK AO2 SLP205 T00630043 FZRANO $
RJTY 231156Z AUTO 30003KT 10SM FEW017 BKN150 07/05 A3012 RMK AO2 SLP209 60001 T00690046 10075 20059 53006 FZRANO $
RJTY 231056Z AUTO 00000KT 10SM OVC150 07/03 A3011 RMK AO2 SLP205 T00680032 FZRANO $
RJTY 230956Z AUTO 01006KT 10SM SCT036 BKN150 07/03 A3010 RMK AO2 SLP202 T00680029 FZRANO $
RJTY 230856Z AUTO 02005KT 10SM OVC035 07/04 A3010 RMK AO2 SLP202 60001 T00730039 55000 FZRANO $
RJTY 230756Z AUTO 03006KT 10SM OVC033 08/04 A3009 RMK AO2 SLP199 T00750039 FZRANO $
RJTY 230656Z AUTO 04006KT 10SM OVC024 07/05 A3009 RMK AO2 CIG 023 RWY18 SLP199 P0001 T00730048 FZRANO $
RJTY 230556Z AUTO 02004KT 10SM OVC023 07/05 A3010 RMK AO2 RAE0456RAB04E49DZB49E50 CIG 022 RWY18 SLP203 P0000 60005 T00720045 10078 20049 56025 FZRANO $
RJTY 230504Z AUTO 04005KT 10SM -RA OVC024 08/03 A3010 RMK AO2 RAE0456RAB04 SLP202 FZRANO $
RJTY 230457Z AUTO 04004KT 10SM OVC024 08/04 A3010 RMK AO2 RAE56 SLP202 FZRANO $
RJTY 230416Z AUTO 00000KT 10SM -RA OVC026 07/04 A3012 RMK AO2 RAB16 CIG 024 RWY18 SLP209 FZRANO $
RJTY 230356Z AUTO 00000KT 10SM OVC027 07/04 A3013 RMK AO2 CIG 026 RWY18 SLP212 T00710035 FZRANO $
RJTY 230326Z AUTO 00000KT 10SM OVC029 06/03 A3015 RMK AO2 SLP219 FZRANO $
RJTY 230256Z AUTO 00000KT 10SM BKN034 BKN050 06/03 A3017 RMK AO2 RAE11RAB13E16DZB16E23 SLP226 P0000 60005 T00600032 58035 FZRANO $
RJTY 230223Z AUTO 00000KT 10SM OVC046 06/03 A3019 RMK AO2 RAE11RAB13E16DZB16E23 PRESFR SLP233 FZRANO $
RJTY 230213Z AUTO 00000KT 10SM -RA BKN047 06/03 A3021 RMK AO2 RAE11RAB13 SLP241 FZRANO $
RJTY 230156Z AUTO 00000KT 10SM -RA FEW039 BKN047 05/03 A3022 RMK AO2 PRESFR SLP243 P0002 T00520029 FZRANO $
RJTY 230056Z AUTO 00000KT 9SM -RA OVC065 05/03 A3028 RMK AO2 SLP264 P0003 T00500030 FZRANO $
RJTY 222356Z AUTO 00000KT 10SM -RA FEW048 BKN075 05/03 A3028 RMK AO2 RAE2256RAB05E12DZB12E20RAB20E49DZB49E52RAB55 SLP264 P0000 60000 T00480028 10048 20013 50007 FZRANO $
RJTY 222320Z AUTO 04004KT 10SM -DZ BKN080 04/03 A3024 RMK AO2 RAE2256RAB05E12DZB12 SLP251 FZRANO $
RJTY 222256Z 00000KT 7SM -RA FEW040 OVC070 04/02 A3027 RMK AO2A SLP261 T00400024 FZRANO $
RJTY 222156Z AUTO 00000KT 10SM CLR 03/01 A3027 RMK AO2 SLP261 T00340010 FZRANO $
RJTY 222056Z AUTO 00000KT 10SM FEW140 03/01 A3025 RMK AO2 SLP254 T00270008 55004 FZRANO $
RJTY 221956Z AUTO 00000KT 10SM OVC140 02/00 A3025 RMK AO2 SLP255 T00210002 FZRANO $
RJTY 221856Z AUTO 00000KT 10SM OVC150 02/01 A3026 RMK AO2 SLP258 T00210005 FZRANO $
RJTY 221756Z AUTO 34003KT 10SM BKN160 BKN180 02/00 A3026 RMK AO2 SLP258 T00191004 10044 20017 55015 FZRANO $
RJTY 221656Z AUTO 00000KT 10SM BKN170 BKN210 02/00 A3028 RMK AO2 SLP264 T00201004 FZRANO $
RJTY 221556Z AUTO 25003KT 10SM OVC180 04/00 A3027 RMK AO2 SLP261 T00410004 FZRANO $
RJTY 221456Z AUTO 30003KT 10SM BKN180 04/00 A3031 RMK AO2 SLP275 T00400002 400681032 55008 FZRANO $
RJTY 221356Z AUTO 00000KT 10SM FEW140 BKN190 04/00 A3032 RMK AO2 SLPNO T00430001 FZRANO $
RJTY 221256Z AUTO 27003KT 10SM SCT190 04/00 A3031 RMK AO2 SLPNO T00411001 FZRANO $
RJTY 221156Z AUTO 27005KT 10SM SCT130 BKN190 04/00 A3033 RMK AO2 SLP282 T00431005 10068 20041 58001 FZRANO $
RJTY 221056Z AUTO 27003KT 10SM BKN130 BKN180 05/M02 A3034 RMK AO2 SLP285 T00481023 FZRANO $
RJTY 220956Z AUTO 00000KT 10SM OVC120 05/M03 A3034 RMK AO2 SLP285 T00461027 FZRANO $
RJTY 220856Z AUTO 00000KT 10SM BKN110 OVC140 05/M03 A3033 RMK AO2 SLP282 T00451026 58003 FZRANO $
RJTY 220756Z AUTO 09003KT 10SM FEW150 05/M03 A3034 RMK AO2 SLP286 T00451033 FZRANO $
RJTY 220726Z AUTO 05004KT 10SM FEW026 06/M03 A3034 RMK AO2 SLP287 FZRANO $
RJTY 220656Z AUTO 07004KT 10SM BKN026 OVC055 07/M03 A3034 RMK AO2 BKN V OVC CIG 024 RWY18 SLP286 T00651032 FZRANO $
RJTY 220556Z AUTO 06005KT 10SM OVC028 06/M03 A3034 RMK AO2 CIG 026 RWY18 SLP286 T00641030 10067 20016 56025 FZRANO $
RJTY 220456Z AUTO 08003KT 10SM OVC028 06/M04 A3035 RMK AO2 CIG 027 RWY18 SLP289 T00631036 FZRANO $
RJTY 220426Z AUTO 07004KT 10SM OVC029 06/M04 A3037 RMK AO2 CIG 027 RWY18 SLP296 FZRANO $
RJTY 220356Z AUTO 02004KT 10SM OVC031 05/M05 A3038 RMK AO2 SLP300 T00481053 FZRANO $
RJTY 220256Z AUTO 04006KT 10SM OVC035 04/M05 A3041 RMK AO2 PRESFR SLP309 T00401055 FZRANO $
RJTY 220156Z 02005KT 10SM BKN040 03/M05 A3047 RMK AO2A SLPNO RVRNO FZRANO $
RJTY 220056Z 01006KT 10SM OVC040 03/M03 A3048 RMK AO2A SLPNO RVRNO FZRANO ALSTG ESTMD WND DATA ESTMD $